LOWIEDLP

Guest
Details From LOWI - Innsbruck Kranebitten
To EDLP - Paderborn Lippstadt
Flight Number -
Tags Generated
Created
Modified
Stats Distance 282 nm / 522 km
Max Altitude 0 ft / 0 m
Waypoints 3
Social Downloads 5
Likes 0
Share VATSIM

Download

Looking for another format? Having issues loading an existing format? Contact us
Advertisement - Login to hide

Notes

Generated

Route

LOWI ESADU EDLP

ID Type Via Altitude Latitude Longitude Leg Dist Tot Dist Heading (true) Name
O LOWI APT - 0 ft / 0 m 47.25883˚ 11.33091˚ - 0 nm - -
ESADU FIX - 0 ft / 0 m 51.41000˚ 8.75611˚ 268 nm 268 nm 339° / 337° -
O EDLP APT - 0 ft / 0 m 51.60888˚ 8.60309˚ 13 nm 282 nm 334° / 334° -

Altitude Profile

Advertisement - Login to hide

Weather


0- 5 10 15 20 25 30 35+ Temperature / ° C

Clouds and Precipitation
Forecast for 2017-12-11 06:00 UTC. Updated 2 hours ago

Ground ~20,000 ft ~40,000 ft Winds

LOWI

Details ICAO LOWI (INN)
Name Innsbruck Kranebitten
Region Austria
Timezone Europe/Vienna (UTC+1.0)
Stats Elevation 1,906 ft / 581 m (AMSL)
Location 47.260226° 11.343967°
Runways 1
Magnetic Variation 3.018° E

METAR

LOWI 110220Z AUTO 26012KT 9999 FEW180 SCT190 M02/M04 Q0993

Decode

TAF

TAF LOWI 102315Z 1100/1124 27010KT 9999 FEW070 BKN100 TX11/1113Z TN00/1100Z BECMG 1109/1111 12012G30KT TEMPO 1110/1118 12040G60KT SCT100 BKN250 BECMG 1120/1122 27010KT -RA FEW040 BKN060

Decode

Departure Runways

ID Width Length Bearing (true) Bearing (mag) Surface Threshold Offset Overrun Length
08 148 ft / 45 m 6,545 ft / 1,995 m 81.02° 78.00° Asphalt 338 ft / 103 m 0 ft / 0 m
26 148 ft / 45 m 6,545 ft / 1,995 m 261.04° 258.02° Asphalt 0 ft / 0 m 0 ft / 0 m

EDLP

Details ICAO EDLP (PAD)
Name Paderborn Lippstadt
Region Germany - Civil
Timezone Europe/Berlin (UTC+1.0)
Stats Elevation 699 ft / 213 m (AMSL)
Location 51.614166° 8.616336°
Runways 1
Magnetic Variation 2.356° E

METAR

EDLP 110220Z 28010G21KT 9999 BKN020 01/M01 Q0983

Decode

TAF

TAF TAF EDLP 102300Z 1100/1124 25020G30KT 9999 BKN020 BECMG 1101/1104 25013KT BECMG 1105/1108 10010KT TEMPO 1110/1115 2000 SNRA BKN013 PROB30 TEMPO 1110/1114 1400 SN BKN007 BECMG 1114/1117 17012KT TEMPO 1115/1124 4000 -RASN BKN013 PROB30 TEMPO 1118/1124 18015G25KT

Decode

Destination Runways

ID Width Length Bearing (true) Bearing (mag) Surface Threshold Offset Overrun Length
06 148 ft / 45 m 7,136 ft / 2,175 m 57.28° 54.92° Asphalt 0 ft / 0 m 1,066 ft / 325 m
24 148 ft / 45 m 7,136 ft / 2,175 m 237.30° 234.94° Asphalt 0 ft / 0 m 397 ft / 121 m

Approach Navaids

Runway Type Ident Frequency Range Bearing (true) Bearing (mag) Slope Elevation
06 Localiser IPLE 111.70 MHz 18 nm / 33 km 57.13° 54.78° - 674 ft / 205 m (AMSL)
06 Glidescope IPLE 111.70 MHz 10 nm / 19 km 57.29° 54.93° 3.00° 699 ft / 213 m (AMSL)
24 Localiser IPLW 108.55 MHz 18 nm / 33 km 236.80° 234.44° - 699 ft / 213 m (AMSL)
24 Glidescope IPLW 108.55 MHz 10 nm / 19 km 237.29° 234.93° 3.00° 674 ft / 205 m (AMSL)

Popular Alternatives